createdAt,value
2022-09-01T00:01:51.136Z,9.97
2022-09-01T00:04:25.987Z,9.95
2022-09-01T00:06:55.172Z,9.85
2022-09-01T00:09:23.564Z,9.82
2022-09-01T00:11:54.415Z,9.81
2022-09-01T00:14:30.405Z,9.78
2022-09-01T00:17:04.805Z,9.80
2022-09-01T00:19:33.446Z,9.76
2022-09-01T00:22:00.529Z,9.72
2022-09-01T00:24:27.814Z,9.69
2022-09-01T00:26:55.841Z,9.69
2022-09-01T00:29:24.311Z,9.69
2022-09-01T00:31:51.609Z,9.70
2022-09-01T00:34:18.633Z,9.73
2022-09-01T00:36:45.450Z,9.71
2022-09-01T00:39:14.635Z,9.65
2022-09-01T00:41:44.905Z,9.65
2022-09-01T00:44:16.030Z,9.70
2022-09-01T00:46:49.716Z,9.72
2022-09-01T00:49:27.432Z,9.69
2022-09-01T00:52:01.900Z,9.63
2022-09-01T00:54:34.654Z,9.60
2022-09-01T00:57:04.118Z,9.58
2022-09-01T00:59:31.785Z,9.52
2022-09-01T01:01:59.492Z,9.53
2022-09-01T01:04:26.504Z,9.54
2022-09-01T01:07:01.815Z,9.58
2022-09-01T01:09:33.330Z,9.43
2022-09-01T01:12:02.834Z,9.36
2022-09-01T01:14:32.416Z,9.30
2022-09-01T01:17:01.028Z,9.23
2022-09-01T01:19:55.452Z,9.23
2022-09-01T01:22:46.821Z,9.23
2022-09-01T01:25:14.095Z,9.17
2022-09-01T01:27:43.733Z,9.15
2022-09-01T01:30:12.586Z,9.12
2022-09-01T01:32:43.324Z,9.11
2022-09-01T01:35:14.978Z,9.14
2022-09-01T01:37:49.020Z,9.18
2022-09-01T01:40:19.798Z,9.20
2022-09-01T01:42:48.820Z,9.18
2022-09-01T01:45:18.328Z,9.18
2022-09-01T01:47:50.336Z,9.19
2022-09-01T01:50:17.119Z,9.28
2022-09-01T01:52:45.533Z,9.16
2022-09-01T01:55:12.839Z,9.13
2022-09-01T01:57:48.881Z,9.10
2022-09-01T02:00:26.059Z,9.08
2022-09-01T02:02:58.685Z,8.98
2022-09-01T02:05:32.284Z,8.96
2022-09-01T02:08:05.584Z,8.92
2022-09-01T02:10:35.294Z,8.84
2022-09-01T02:13:07.377Z,8.82
2022-09-01T02:15:44.596Z,8.84
2022-09-01T02:18:16.698Z,8.82
2022-09-01T02:20:44.092Z,8.83
2022-09-01T02:23:12.411Z,8.76
2022-09-01T02:26:04.992Z,8.79
2022-09-01T02:28:36.900Z,8.75
2022-09-01T02:31:05.248Z,8.69
2022-09-01T02:33:32.609Z,8.72
2022-09-01T02:36:03.154Z,8.68
2022-09-01T02:38:33.757Z,8.69
2022-09-01T02:41:02.775Z,8.72
2022-09-01T02:43:32.003Z,8.71
2022-09-01T02:46:01.421Z,8.74
2022-09-01T02:48:38.005Z,8.77
2022-09-01T02:51:08.248Z,8.74
2022-09-01T02:53:36.189Z,8.71
2022-09-01T02:56:09.524Z,8.71
2022-09-01T02:58:45.736Z,8.70
2022-09-01T03:01:20.493Z,8.76
2022-09-01T03:03:48.883Z,8.74
2022-09-01T03:06:18.502Z,8.78
2022-09-01T03:08:45.953Z,8.82
2022-09-01T03:11:13.471Z,8.84
2022-09-01T03:13:41.741Z,8.83
2022-09-01T03:16:09.841Z,8.83
2022-09-01T03:18:37.728Z,8.86
2022-09-01T03:21:08.408Z,8.88
2022-09-01T03:23:35.924Z,8.86
2022-09-01T03:26:02.963Z,8.91
2022-09-01T03:28:30.285Z,8.95
2022-09-01T03:30:58.440Z,8.97
2022-09-01T03:33:28.096Z,8.93
2022-09-01T03:35:56.028Z,8.94
2022-09-01T03:38:24.521Z,8.98
2022-09-01T03:41:00.924Z,9.02
2022-09-01T03:43:35.252Z,8.95
2022-09-01T03:46:03.467Z,8.92
2022-09-01T03:48:32.160Z,8.88
2022-09-01T03:51:03.281Z,8.80
2022-09-01T03:53:35.111Z,8.81
2022-09-01T03:56:04.215Z,8.86
2022-09-01T03:58:31.307Z,8.87
2022-09-01T04:01:02.068Z,8.84
2022-09-01T04:03:32.590Z,8.82
2022-09-01T04:06:01.371Z,8.84
2022-09-01T04:08:32.437Z,8.85
2022-09-01T04:11:11.355Z,8.92
2022-09-01T04:13:39.761Z,8.85
2022-09-01T04:16:30.676Z,8.89
2022-09-01T04:18:57.581Z,8.92
2022-09-01T04:21:24.337Z,8.93
2022-09-01T04:23:51.198Z,8.95
2022-09-01T04:26:20.519Z,9.01
2022-09-01T04:28:49.502Z,9.03
2022-09-01T04:31:22.277Z,9.08
2022-09-01T04:33:52.852Z,9.11
2022-09-01T04:36:30.768Z,9.04
2022-09-01T04:39:00.732Z,9.05
2022-09-01T04:41:32.049Z,9.03
2022-09-01T04:44:02.500Z,9.02
2022-09-01T04:46:31.456Z,8.94
2022-09-01T04:48:58.814Z,8.97
2022-09-01T04:51:28.176Z,8.93
2022-09-01T04:53:57.494Z,9.01
2022-09-01T04:56:26.869Z,8.99
2022-09-01T04:58:55.868Z,9.02
2022-09-01T05:01:25.205Z,9.12
2022-09-01T05:04:04.173Z,9.08
2022-09-01T05:06:33.977Z,9.13
2022-09-01T05:09:00.746Z,9.09
2022-09-01T05:11:27.831Z,9.08
2022-09-01T05:13:57.826Z,9.14
2022-09-01T05:16:25.896Z,9.18
2022-09-01T05:18:57.192Z,9.15
2022-09-01T05:21:26.685Z,9.23
2022-09-01T05:23:54.386Z,9.24
2022-09-01T05:26:33.787Z,9.23
2022-09-01T05:29:10.853Z,9.27
2022-09-01T05:31:38.988Z,9.32
2022-09-01T05:34:09.803Z,9.39
2022-09-01T05:36:41.943Z,9.49
2022-09-01T05:39:12.481Z,9.52
2022-09-01T05:41:42.814Z,9.56
2022-09-01T05:44:09.860Z,9.56
2022-09-01T05:46:39.069Z,9.64
2022-09-01T05:49:09.321Z,9.66
2022-09-01T05:51:45.667Z,9.62
2022-09-01T05:54:14.559Z,9.66
2022-09-01T05:56:44.793Z,9.63
2022-09-01T05:59:29.500Z,9.66
2022-09-01T06:01:56.741Z,9.66
2022-09-01T06:04:25.764Z,9.68
2022-09-01T06:07:10.234Z,9.62
2022-09-01T06:09:43.779Z,9.63
2022-09-01T06:12:18.694Z,9.60
2022-09-01T06:14:50.809Z,9.60
2022-09-01T06:17:22.226Z,9.57
2022-09-01T06:19:49.120Z,9.58
2022-09-01T06:22:16.035Z,9.54
2022-09-01T06:24:43.654Z,9.61
2022-09-01T06:27:11.773Z,9.61
2022-09-01T06:29:41.804Z,9.63
2022-09-01T06:32:13.226Z,9.66
2022-09-01T06:34:51.463Z,9.66
2022-09-01T06:37:23.106Z,9.71
2022-09-01T06:39:50.987Z,9.81
2022-09-01T06:42:19.609Z,9.92
2022-09-01T06:44:46.575Z,9.96
2022-09-01T06:47:15.508Z,10.04
2022-09-01T06:49:42.490Z,10.01
2022-09-01T06:52:09.452Z,9.97
2022-09-01T06:54:39.275Z,9.91
2022-09-01T06:59:54.202Z,9.90
2022-09-01T07:02:22.374Z,9.96
2022-09-01T07:04:53.728Z,10.04
2022-09-01T07:10:25.111Z,9.99
2022-09-01T07:13:11.598Z,10.03
2022-09-01T07:18:31.344Z,10.02
2022-09-01T07:21:06.946Z,10.01
2022-09-01T07:24:10.978Z,10.02
2022-09-01T07:26:26.609Z,10.13
2022-09-01T07:29:01.026Z,10.20
2022-09-01T07:32:43.462Z,10.11
2022-09-01T07:34:38.650Z,10.06
2022-09-01T07:39:55.153Z,10.17
2022-09-01T07:45:28.363Z,10.11
2022-09-01T07:47:56.716Z,10.18
2022-09-01T07:50:40.293Z,10.20
2022-09-01T07:53:09.452Z,10.19
2022-09-01T07:55:42.238Z,10.27
2022-09-01T07:58:12.267Z,10.42
2022-09-01T08:00:46.313Z,10.55
2022-09-01T08:03:14.651Z,10.65
2022-09-01T08:05:51.263Z,10.82
2022-09-01T08:08:19.116Z,10.87
2022-09-01T08:10:48.957Z,10.72
2022-09-01T08:13:18.297Z,10.59
2022-09-01T08:18:52.328Z,10.63
2022-09-01T08:21:23.425Z,10.60
2022-09-01T08:23:52.480Z,10.59
2022-09-01T08:26:21.719Z,10.53
2022-09-01T08:28:54.945Z,10.48
2022-09-01T08:31:24.250Z,10.56
2022-09-01T08:33:51.494Z,10.58
2022-09-01T08:36:23.754Z,10.70
2022-09-01T08:38:52.720Z,10.66
2022-09-01T08:41:46.968Z,10.79
2022-09-01T08:44:20.093Z,10.75
2022-09-01T08:46:48.851Z,10.79
2022-09-01T08:49:27.811Z,10.81
2022-09-01T08:51:59.061Z,10.64
2022-09-01T08:54:52.539Z,10.66
2022-09-01T08:57:38.116Z,10.67
2022-09-01T09:00:10.293Z,10.67
2022-09-01T09:02:42.914Z,10.66
2022-09-01T09:05:28.089Z,10.66
2022-09-01T09:08:06.510Z,10.70
2022-09-01T09:10:52.358Z,10.73
2022-09-01T09:13:44.808Z,10.81
2022-09-01T09:16:27.809Z,10.82
2022-09-01T09:19:02.850Z,10.69
2022-09-01T09:21:37.213Z,10.64
2022-09-01T09:24:47.186Z,10.72
2022-09-01T09:27:21.037Z,10.78
2022-09-01T09:29:52.318Z,10.73
2022-09-01T09:32:31.587Z,10.52
2022-09-01T09:35:36.413Z,10.54
2022-09-01T09:38:33.151Z,10.65
2022-09-01T09:41:16.537Z,10.62
2022-09-01T09:43:55.980Z,10.60
2022-09-01T09:46:25.301Z,10.70
2022-09-01T09:49:21.630Z,10.84
2022-09-01T09:52:08.760Z,10.74
2022-09-01T09:54:38.320Z,10.82
2022-09-01T09:57:16.203Z,10.81
2022-09-01T09:59:59.168Z,10.81
2022-09-01T10:02:37.952Z,10.80
2022-09-01T10:05:24.938Z,10.82
2022-09-01T10:07:52.916Z,10.70
2022-09-01T10:10:43.431Z,10.87
2022-09-01T10:13:18.095Z,10.86
2022-09-01T10:15:51.114Z,10.86
2022-09-01T10:18:31.274Z,10.86
2022-09-01T10:21:04.224Z,10.92
2022-09-01T10:23:34.718Z,10.94
2022-09-01T10:26:19.361Z,10.98
2022-09-01T10:29:01.391Z,11.02
2022-09-01T10:31:32.397Z,10.99
2022-09-01T10:34:03.167Z,11.05
2022-09-01T10:36:34.854Z,11.13
2022-09-01T10:39:06.368Z,11.25
2022-09-01T10:41:59.813Z,11.30
2022-09-01T10:44:31.953Z,11.20
2022-09-01T10:47:06.219Z,11.23
2022-09-01T10:49:35.466Z,11.08
2022-09-01T10:52:08.595Z,11.16
2022-09-01T10:54:50.892Z,11.27
2022-09-01T10:57:27.056Z,11.38
2022-09-01T10:59:58.279Z,11.47
2022-09-01T11:02:27.656Z,11.43
2022-09-01T11:04:55.167Z,11.36
2022-09-01T11:07:29.727Z,11.35
2022-09-01T11:10:31.695Z,11.47
2022-09-01T11:13:19.145Z,11.70
2022-09-01T11:15:46.405Z,11.71
2022-09-01T11:18:31.550Z,11.84
2022-09-01T11:21:28.585Z,11.90
2022-09-01T11:24:39.565Z,12.03
2022-09-01T11:27:09.269Z,11.99
2022-09-01T11:30:02.864Z,12.14
2022-09-01T11:32:37.325Z,11.99
2022-09-01T11:35:14.369Z,11.78
2022-09-01T11:37:41.158Z,11.60
2022-09-01T11:40:10.101Z,11.63
2022-09-01T11:42:46.757Z,11.59
2022-09-01T11:45:21.655Z,11.60
2022-09-01T11:47:56.266Z,11.98
2022-09-01T11:50:28.986Z,12.22
2022-09-01T11:53:04.803Z,12.23
2022-09-01T11:55:41.121Z,12.27
2022-09-01T11:58:39.340Z,12.36
2022-09-01T12:01:32.027Z,12.39
2022-09-01T12:04:17.549Z,12.20
2022-09-01T12:06:57.165Z,12.21
2022-09-01T12:09:45.876Z,12.21
2022-09-01T12:12:33.090Z,12.80
2022-09-01T12:15:11.656Z,13.04
2022-09-01T12:17:40.619Z,12.80
2022-09-01T12:20:29.859Z,12.84
2022-09-01T12:22:58.899Z,12.65
2022-09-01T12:25:27.672Z,12.57
2022-09-01T12:27:55.548Z,12.71
2022-09-01T12:30:23.521Z,12.75
2022-09-01T12:32:50.780Z,12.70
2022-09-01T12:35:22.461Z,12.56
2022-09-01T12:37:50.564Z,12.54
2022-09-01T12:40:32.409Z,12.79
2022-09-01T12:42:59.471Z,13.04
2022-09-01T12:45:45.575Z,13.44
2022-09-01T12:48:30.100Z,13.66
2022-09-01T12:51:00.049Z,13.45
2022-09-01T12:53:31.740Z,13.35
2022-09-01T12:56:03.434Z,13.31
2022-09-01T12:58:32.025Z,14.04
2022-09-01T13:01:04.045Z,15.14
2022-09-01T13:03:34.581Z,15.65
2022-09-01T13:06:03.511Z,15.73
2022-09-01T13:08:33.482Z,15.60
2022-09-01T13:11:07.458Z,15.54
2022-09-01T13:13:35.405Z,15.48
2022-09-01T13:16:13.005Z,14.86
2022-09-01T13:21:30.161Z,14.01
2022-09-01T13:23:57.383Z,13.84
2022-09-01T13:26:24.172Z,13.71
2022-09-01T13:28:51.743Z,13.54
2022-09-01T13:31:34.473Z,13.43
2022-09-01T13:34:10.856Z,13.22
2022-09-01T13:36:52.031Z,13.02
2022-09-01T13:39:20.293Z,12.90
2022-09-01T13:41:48.060Z,13.00
2022-09-01T13:44:17.251Z,13.35
2022-09-01T13:47:28.202Z,14.29
2022-09-01T13:52:19.978Z,14.20
2022-09-01T13:54:47.865Z,13.93
2022-09-01T13:57:16.605Z,13.59
2022-09-01T13:59:44.120Z,13.31
2022-09-01T14:02:11.176Z,13.12
2022-09-01T14:04:38.763Z,13.07
2022-09-01T14:07:06.041Z,12.93
2022-09-01T14:09:33.310Z,12.79
2022-09-01T14:12:00.124Z,12.67
2022-09-01T14:14:26.874Z,12.59
2022-09-01T14:16:54.182Z,12.58
2022-09-01T14:19:21.146Z,12.64
2022-09-01T14:21:49.674Z,13.33
2022-09-01T14:24:21.113Z,14.13
2022-09-01T14:26:48.335Z,14.75
2022-09-01T14:29:15.169Z,15.33
2022-09-01T14:31:45.015Z,14.89
2022-09-01T14:34:12.304Z,14.43
2022-09-01T14:36:39.262Z,13.78
2022-09-01T14:39:06.296Z,13.30
2022-09-01T14:41:33.429Z,12.98
2022-09-01T14:44:03.315Z,12.63
2022-09-01T14:46:34.462Z,12.06
2022-09-01T14:49:02.587Z,11.53
2022-09-01T14:54:17.978Z,10.61
2022-09-01T14:57:28.313Z,10.16
2022-09-01T14:59:32.649Z,9.87
2022-09-01T15:01:59.712Z,9.67
2022-09-01T15:04:27.908Z,9.61
2022-09-01T15:06:55.417Z,9.63
2022-09-01T15:09:22.612Z,9.75
2022-09-01T15:11:49.553Z,9.88
2022-09-01T15:14:16.348Z,9.96
2022-09-01T15:16:43.192Z,10.03
2022-09-01T15:19:13.453Z,10.06
2022-09-01T15:21:42.533Z,10.07
2022-09-01T15:24:11.701Z,10.07
2022-09-01T15:26:40.847Z,10.11
2022-09-01T15:29:10.033Z,10.13
2022-09-01T15:31:36.892Z,10.10
2022-09-01T15:34:05.437Z,10.13
2022-09-01T15:36:35.630Z,10.12
2022-09-01T15:39:02.752Z,10.17
2022-09-01T15:41:32.253Z,10.21
2022-09-01T15:43:59.511Z,10.24
2022-09-01T15:46:32.888Z,10.25
2022-09-01T15:49:06.358Z,10.21
2022-09-01T15:51:34.708Z,10.17
2022-09-01T15:54:18.321Z,10.15
2022-09-01T15:56:47.296Z,10.10
2022-09-01T15:59:15.345Z,10.06
2022-09-01T16:01:46.969Z,10.04
2022-09-01T16:04:19.877Z,10.05
2022-09-01T16:06:49.562Z,10.05
2022-09-01T16:09:18.457Z,10.06
2022-09-01T16:11:45.538Z,10.09
2022-09-01T16:14:12.640Z,10.14
2022-09-01T16:17:05.360Z,10.17
2022-09-01T16:19:49.806Z,10.21
2022-09-01T16:22:36.579Z,10.21
2022-09-01T16:25:29.832Z,10.16
2022-09-01T16:27:57.512Z,10.03
2022-09-01T16:30:29.841Z,9.99
2022-09-01T16:33:03.424Z,9.92
2022-09-01T16:35:49.153Z,9.86
2022-09-01T16:38:22.841Z,9.85
2022-09-01T16:41:04.085Z,9.80
2022-09-01T16:43:52.512Z,9.75
2022-09-01T16:47:18.364Z,9.77
2022-09-01T16:49:50.761Z,9.69
2022-09-01T16:52:43.171Z,9.66
2022-09-01T16:55:29.657Z,9.62
2022-09-01T16:58:21.572Z,9.57
2022-09-01T17:01:23.244Z,9.58
2022-09-01T17:03:50.062Z,9.47
2022-09-01T17:06:36.588Z,9.46
2022-09-01T17:09:20.631Z,9.42
2022-09-01T17:11:53.763Z,9.42
2022-09-01T17:14:31.535Z,9.42
2022-09-01T17:17:20.973Z,9.44
2022-09-01T17:19:52.993Z,9.41
2022-09-01T17:22:20.699Z,9.41
2022-09-01T17:25:10.049Z,9.47
2022-09-01T17:27:54.317Z,9.45
2022-09-01T17:30:22.212Z,9.44
2022-09-01T17:32:50.042Z,9.48
2022-09-01T17:35:38.474Z,9.49
2022-09-01T17:38:30.017Z,9.50
2022-09-01T17:41:23.309Z,9.46
2022-09-01T17:44:12.711Z,9.50
2022-09-01T17:46:42.145Z,9.46
2022-09-01T17:49:09.380Z,9.44
2022-09-01T17:51:58.396Z,9.48
2022-09-01T17:54:45.428Z,9.45
2022-09-01T17:57:39.754Z,9.44
2022-09-01T18:00:25.318Z,9.41
2022-09-01T18:03:10.450Z,9.42
2022-09-01T18:05:43.968Z,9.38
2022-09-01T18:08:13.724Z,9.40
2022-09-01T18:10:45.605Z,9.42
2022-09-01T18:13:52.503Z,9.47
2022-09-01T18:16:24.821Z,9.44
2022-09-01T18:18:53.290Z,9.46
2022-09-01T18:21:21.914Z,9.47
2022-09-01T18:23:55.680Z,9.47
2022-09-01T18:26:36.309Z,9.45
2022-09-01T18:29:05.189Z,9.43
2022-09-01T18:31:34.918Z,9.42
2022-09-01T18:34:36.392Z,9.42
2022-09-01T18:37:44.485Z,9.44
2022-09-01T18:40:26.308Z,9.42
2022-09-01T18:43:14.379Z,9.40
2022-09-01T18:45:56.711Z,9.40
2022-09-01T18:48:42.902Z,9.34
2022-09-01T18:51:40.601Z,9.35
2022-09-01T18:54:15.766Z,9.35
2022-09-01T18:56:57.624Z,9.34
2022-09-01T18:59:59.052Z,9.35
2022-09-01T19:02:47.647Z,9.32
2022-09-01T19:05:33.556Z,9.38
2022-09-01T19:08:15.300Z,9.33
2022-09-01T19:10:48.866Z,9.31
2022-09-01T19:13:48.515Z,9.34
2022-09-01T19:16:42.037Z,9.27
2022-09-01T19:19:15.006Z,9.24
2022-09-01T19:21:43.826Z,9.21
2022-09-01T19:24:32.334Z,9.22
2022-09-01T19:27:08.110Z,9.12
2022-09-01T19:29:46.844Z,9.08
2022-09-01T19:32:18.638Z,9.00
2022-09-01T19:34:53.348Z,8.98
2022-09-01T19:37:21.644Z,8.95
2022-09-01T19:39:54.194Z,8.88
2022-09-01T19:42:34.403Z,8.85
2022-09-01T19:45:14.368Z,8.86
2022-09-01T19:48:05.533Z,8.80
2022-09-01T19:50:36.829Z,8.72
2022-09-01T19:53:37.735Z,8.74
2022-09-01T19:56:07.587Z,8.64
2022-09-01T19:58:56.659Z,8.60
2022-09-01T20:01:41.232Z,8.60
2022-09-01T20:04:27.723Z,8.61
2022-09-01T20:06:59.399Z,8.55
2022-09-01T20:09:37.281Z,8.53
2022-09-01T20:12:29.347Z,8.56
2022-09-01T20:15:21.539Z,8.48
2022-09-01T20:18:04.277Z,8.42
2022-09-01T20:20:39.191Z,8.37
2022-09-01T20:23:27.409Z,8.35
2022-09-01T20:26:08.220Z,8.34
2022-09-01T20:28:55.226Z,8.31
2022-09-01T20:31:31.982Z,8.23
2022-09-01T20:34:07.765Z,8.22
2022-09-01T20:36:47.063Z,8.19
2022-09-01T20:39:38.899Z,8.28
2022-09-01T20:42:13.192Z,8.27
2022-09-01T20:44:55.366Z,8.31
2022-09-01T20:47:26.048Z,8.25
2022-09-01T20:49:52.884Z,8.09
2022-09-01T20:52:40.780Z,8.10
2022-09-01T20:55:37.526Z,8.07
2022-09-01T20:58:25.662Z,8.05
2022-09-01T21:01:03.570Z,8.02
2022-09-01T21:04:08.390Z,8.00
2022-09-01T21:06:55.887Z,8.02
2022-09-01T21:10:03.168Z,7.98
2022-09-01T21:12:36.998Z,7.87
2022-09-01T21:15:16.847Z,7.81
2022-09-01T21:17:43.638Z,7.74
2022-09-01T21:20:23.722Z,7.73
2022-09-01T21:22:50.977Z,7.66
2022-09-01T21:25:17.725Z,7.61
2022-09-01T21:27:51.306Z,7.58
2022-09-01T21:30:19.881Z,7.53
2022-09-01T21:32:47.104Z,7.49
2022-09-01T21:35:16.879Z,7.48
2022-09-01T21:37:43.975Z,7.39
2022-09-01T21:40:12.364Z,7.38
2022-09-01T21:42:44.165Z,7.35
2022-09-01T21:45:13.720Z,7.33
2022-09-01T21:47:42.565Z,7.30
2022-09-01T21:50:10.261Z,7.26
2022-09-01T21:52:37.227Z,7.26
2022-09-01T21:55:04.605Z,7.24
2022-09-01T21:57:31.668Z,7.22
2022-09-01T21:59:58.460Z,7.16
2022-09-01T22:02:28.390Z,7.14
2022-09-01T22:04:56.327Z,7.11
2022-09-01T22:07:23.107Z,7.05
2022-09-01T22:09:50.267Z,7.03
2022-09-01T22:12:17.179Z,6.99
2022-09-01T22:14:43.904Z,6.99
2022-09-01T22:17:10.745Z,6.99
2022-09-01T22:19:37.560Z,6.94
2022-09-01T22:22:04.889Z,6.90
2022-09-01T22:24:31.833Z,6.88
2022-09-01T22:26:58.655Z,6.84
2022-09-01T22:29:25.535Z,6.81
2022-09-01T22:31:52.457Z,6.78
2022-09-01T22:34:19.460Z,6.74
2022-09-01T22:36:49.216Z,6.74
2022-09-01T22:39:20.273Z,6.72
2022-09-01T22:41:52.552Z,6.71
2022-09-01T22:44:19.533Z,6.71
2022-09-01T22:46:46.277Z,6.73
2022-09-01T22:49:13.128Z,6.75
2022-09-01T22:51:42.053Z,6.80
2022-09-01T22:54:10.980Z,6.81
2022-09-01T22:56:39.726Z,6.86
2022-09-01T22:59:10.941Z,6.87
2022-09-01T23:01:42.512Z,6.84
2022-09-01T23:04:11.758Z,6.86
2022-09-01T23:06:44.982Z,6.90
2022-09-01T23:09:12.393Z,6.85
2022-09-01T23:11:39.342Z,6.84
2022-09-01T23:14:06.189Z,6.82
2022-09-01T23:16:33.634Z,6.83
2022-09-01T23:19:00.852Z,6.80
2022-09-01T23:21:31.581Z,6.82
2022-09-01T23:24:00.008Z,6.82
2022-09-01T23:26:29.289Z,6.78
2022-09-01T23:28:57.026Z,6.75
2022-09-01T23:31:26.678Z,6.75
2022-09-01T23:33:54.431Z,6.72
2022-09-01T23:36:25.784Z,6.74
2022-09-01T23:38:53.639Z,6.72
2022-09-01T23:41:29.319Z,6.79
2022-09-01T23:43:57.380Z,6.72
2022-09-01T23:46:27.820Z,6.75
2022-09-01T23:48:55.652Z,6.76
2022-09-01T23:51:24.677Z,6.80
2022-09-01T23:53:51.837Z,6.79
2022-09-01T23:56:22.672Z,6.84
2022-09-01T23:58:50.181Z,6.84
